sensor_id;sensor_type;location;lat;lon;timestamp;temperature;humidity
29341;DHT22;16337;59.536;13.468;2022-11-23T00:01:28;0.80;99.90
29341;DHT22;16337;59.536;13.468;2022-11-23T00:03:56;0.80;99.90
29341;DHT22;16337;59.536;13.468;2022-11-23T00:06:23;0.80;99.90
29341;DHT22;16337;59.536;13.468;2022-11-23T00:08:50;0.80;99.90
29341;DHT22;16337;59.536;13.468;2022-11-23T00:11:17;0.80;99.90
29341;DHT22;16337;59.536;13.468;2022-11-23T00:13:43;0.80;99.90
29341;DHT22;16337;59.536;13.468;2022-11-23T00:16:17;0.80;99.90
29341;DHT22;16337;59.536;13.468;2022-11-23T00:18:44;0.80;99.90
29341;DHT22;16337;59.536;13.468;2022-11-23T00:21:13;0.80;99.90
29341;DHT22;16337;59.536;13.468;2022-11-23T00:23:38;0.80;99.90
29341;DHT22;16337;59.536;13.468;2022-11-23T00:26:05;0.90;99.90
29341;DHT22;16337;59.536;13.468;2022-11-23T00:28:31;0.80;99.90
29341;DHT22;16337;59.536;13.468;2022-11-23T00:30:57;0.70;99.90
29341;DHT22;16337;59.536;13.468;2022-11-23T00:33:23;0.80;99.90
29341;DHT22;16337;59.536;13.468;2022-11-23T00:35:59;0.80;99.90
29341;DHT22;16337;59.536;13.468;2022-11-23T00:38:25;0.80;99.90
29341;DHT22;16337;59.536;13.468;2022-11-23T00:41:00;0.80;99.90
29341;DHT22;16337;59.536;13.468;2022-11-23T00:43:27;0.80;99.90
29341;DHT22;16337;59.536;13.468;2022-11-23T00:46:07;0.80;99.90
29341;DHT22;16337;59.536;13.468;2022-11-23T00:48:34;0.80;99.90
29341;DHT22;16337;59.536;13.468;2022-11-23T00:51:02;0.80;99.90
29341;DHT22;16337;59.536;13.468;2022-11-23T00:53:28;0.80;99.90
29341;DHT22;16337;59.536;13.468;2022-11-23T00:55:55;0.90;99.90
29341;DHT22;16337;59.536;13.468;2022-11-23T00:58:21;0.90;99.90
29341;DHT22;16337;59.536;13.468;2022-11-23T01:00:47;0.80;99.90
29341;DHT22;16337;59.536;13.468;2022-11-23T01:03:14;0.80;99.90
29341;DHT22;16337;59.536;13.468;2022-11-23T01:05:40;0.80;99.90
29341;DHT22;16337;59.536;13.468;2022-11-23T01:08:06;0.80;99.90
29341;DHT22;16337;59.536;13.468;2022-11-23T01:10:32;0.80;99.90
29341;DHT22;16337;59.536;13.468;2022-11-23T01:12:58;0.80;99.90
29341;DHT22;16337;59.536;13.468;2022-11-23T01:15:24;0.80;99.90
29341;DHT22;16337;59.536;13.468;2022-11-23T01:17:50;0.80;99.90
29341;DHT22;16337;59.536;13.468;2022-11-23T01:20:16;0.80;99.90
29341;DHT22;16337;59.536;13.468;2022-11-23T01:22:42;0.80;99.90
29341;DHT22;16337;59.536;13.468;2022-11-23T01:25:07;0.80;99.90
29341;DHT22;16337;59.536;13.468;2022-11-23T01:27:33;0.80;99.90
29341;DHT22;16337;59.536;13.468;2022-11-23T01:29:59;0.80;99.90
29341;DHT22;16337;59.536;13.468;2022-11-23T01:32:25;0.80;99.90
29341;DHT22;16337;59.536;13.468;2022-11-23T01:34:51;0.80;99.90
29341;DHT22;16337;59.536;13.468;2022-11-23T01:37:16;0.80;99.90
29341;DHT22;16337;59.536;13.468;2022-11-23T01:39:42;0.70;99.90
29341;DHT22;16337;59.536;13.468;2022-11-23T01:42:08;0.70;99.90
29341;DHT22;16337;59.536;13.468;2022-11-23T01:44:35;0.70;99.90
29341;DHT22;16337;59.536;13.468;2022-11-23T01:47:04;0.80;99.90
29341;DHT22;16337;59.536;13.468;2022-11-23T01:49:37;0.80;99.90
29341;DHT22;16337;59.536;13.468;2022-11-23T01:52:15;0.80;99.90
29341;DHT22;16337;59.536;13.468;2022-11-23T01:54:53;0.70;99.90
29341;DHT22;16337;59.536;13.468;2022-11-23T01:57:29;0.70;99.90
29341;DHT22;16337;59.536;13.468;2022-11-23T01:59:57;0.80;99.90
29341;DHT22;16337;59.536;13.468;2022-11-23T02:02:23;0.80;99.90
29341;DHT22;16337;59.536;13.468;2022-11-23T02:04:52;0.80;99.90
29341;DHT22;16337;59.536;13.468;2022-11-23T02:07:19;0.80;99.90
29341;DHT22;16337;59.536;13.468;2022-11-23T02:09:46;0.80;99.90
29341;DHT22;16337;59.536;13.468;2022-11-23T02:12:13;0.80;99.90
29341;DHT22;16337;59.536;13.468;2022-11-23T02:14:40;0.70;99.90
29341;DHT22;16337;59.536;13.468;2022-11-23T02:17:06;0.70;99.90
29341;DHT22;16337;59.536;13.468;2022-11-23T02:19:36;0.70;99.90
29341;DHT22;16337;59.536;13.468;2022-11-23T02:22:11;0.70;99.90
29341;DHT22;16337;59.536;13.468;2022-11-23T02:24:44;0.80;99.90
29341;DHT22;16337;59.536;13.468;2022-11-23T02:27:13;0.70;99.90
29341;DHT22;16337;59.536;13.468;2022-11-23T02:29:39;0.70;99.90
29341;DHT22;16337;59.536;13.468;2022-11-23T02:32:05;0.70;99.90
29341;DHT22;16337;59.536;13.468;2022-11-23T02:34:30;0.70;99.90
29341;DHT22;16337;59.536;13.468;2022-11-23T02:36:56;0.80;99.90
29341;DHT22;16337;59.536;13.468;2022-11-23T02:39:29;0.80;99.90
29341;DHT22;16337;59.536;13.468;2022-11-23T02:41:55;0.80;99.90
29341;DHT22;16337;59.536;13.468;2022-11-23T02:47:06;0.70;99.90
29341;DHT22;16337;59.536;13.468;2022-11-23T02:49:33;0.70;99.90
29341;DHT22;16337;59.536;13.468;2022-11-23T02:51:59;0.70;99.90
29341;DHT22;16337;59.536;13.468;2022-11-23T02:54:25;0.70;99.90
29341;DHT22;16337;59.536;13.468;2022-11-23T02:56:50;0.70;99.90
29341;DHT22;16337;59.536;13.468;2022-11-23T02:59:16;0.60;99.90
29341;DHT22;16337;59.536;13.468;2022-11-23T03:01:42;0.60;99.90
29341;DHT22;16337;59.536;13.468;2022-11-23T03:04:07;0.70;99.90
29341;DHT22;16337;59.536;13.468;2022-11-23T03:06:33;0.60;99.90
29341;DHT22;16337;59.536;13.468;2022-11-23T03:08:59;0.60;99.90
29341;DHT22;16337;59.536;13.468;2022-11-23T03:11:25;0.70;99.90
29341;DHT22;16337;59.536;13.468;2022-11-23T03:13:50;0.70;99.90
29341;DHT22;16337;59.536;13.468;2022-11-23T03:16:16;0.70;99.90
29341;DHT22;16337;59.536;13.468;2022-11-23T03:18:42;0.70;99.90
29341;DHT22;16337;59.536;13.468;2022-11-23T03:21:08;0.70;99.90
29341;DHT22;16337;59.536;13.468;2022-11-23T03:23:34;0.70;99.90
29341;DHT22;16337;59.536;13.468;2022-11-23T03:26:01;0.70;99.90
29341;DHT22;16337;59.536;13.468;2022-11-23T03:28:27;0.70;99.90
29341;DHT22;16337;59.536;13.468;2022-11-23T03:30:53;0.60;99.90
29341;DHT22;16337;59.536;13.468;2022-11-23T03:33:18;0.60;99.90
29341;DHT22;16337;59.536;13.468;2022-11-23T03:35:45;0.60;99.90
29341;DHT22;16337;59.536;13.468;2022-11-23T03:38:11;0.60;99.90
29341;DHT22;16337;59.536;13.468;2022-11-23T03:40:37;0.60;99.90
29341;DHT22;16337;59.536;13.468;2022-11-23T03:43:03;0.60;99.90
29341;DHT22;16337;59.536;13.468;2022-11-23T03:45:29;0.60;99.90
29341;DHT22;16337;59.536;13.468;2022-11-23T03:47:54;0.60;99.90
29341;DHT22;16337;59.536;13.468;2022-11-23T03:50:20;0.60;99.90
29341;DHT22;16337;59.536;13.468;2022-11-23T03:52:48;0.60;99.90
29341;DHT22;16337;59.536;13.468;2022-11-23T03:55:14;0.60;99.90
29341;DHT22;16337;59.536;13.468;2022-11-23T03:57:39;0.70;99.90
29341;DHT22;16337;59.536;13.468;2022-11-23T04:00:06;0.60;99.90
29341;DHT22;16337;59.536;13.468;2022-11-23T04:02:32;0.60;99.90
29341;DHT22;16337;59.536;13.468;2022-11-23T04:04:58;0.60;99.90
29341;DHT22;16337;59.536;13.468;2022-11-23T04:07:24;0.60;99.90
29341;DHT22;16337;59.536;13.468;2022-11-23T04:09:49;0.60;99.90
29341;DHT22;16337;59.536;13.468;2022-11-23T04:12:15;0.70;99.90
29341;DHT22;16337;59.536;13.468;2022-11-23T04:14:40;0.70;99.90
29341;DHT22;16337;59.536;13.468;2022-11-23T04:17:06;0.70;99.90
29341;DHT22;16337;59.536;13.468;2022-11-23T04:19:32;0.70;99.90
29341;DHT22;16337;59.536;13.468;2022-11-23T04:21:57;0.70;99.90
29341;DHT22;16337;59.536;13.468;2022-11-23T04:24:23;0.70;99.90
29341;DHT22;16337;59.536;13.468;2022-11-23T04:26:49;0.80;99.90
29341;DHT22;16337;59.536;13.468;2022-11-23T04:29:14;0.80;99.90
29341;DHT22;16337;59.536;13.468;2022-11-23T04:31:40;0.80;99.90
29341;DHT22;16337;59.536;13.468;2022-11-23T04:34:06;0.80;99.90
29341;DHT22;16337;59.536;13.468;2022-11-23T04:36:31;0.80;99.90
29341;DHT22;16337;59.536;13.468;2022-11-23T04:38:57;0.80;99.90
29341;DHT22;16337;59.536;13.468;2022-11-23T04:41:23;0.80;99.90
29341;DHT22;16337;59.536;13.468;2022-11-23T04:43:49;0.80;99.90
29341;DHT22;16337;59.536;13.468;2022-11-23T04:46:16;0.80;99.90
29341;DHT22;16337;59.536;13.468;2022-11-23T04:48:42;0.80;99.90
29341;DHT22;16337;59.536;13.468;2022-11-23T04:51:08;0.80;99.90
29341;DHT22;16337;59.536;13.468;2022-11-23T04:53:33;0.70;99.90
29341;DHT22;16337;59.536;13.468;2022-11-23T04:55:59;0.80;99.90
29341;DHT22;16337;59.536;13.468;2022-11-23T04:58:25;0.80;99.90
29341;DHT22;16337;59.536;13.468;2022-11-23T05:00:50;0.70;99.90
29341;DHT22;16337;59.536;13.468;2022-11-23T05:03:16;0.80;99.90
29341;DHT22;16337;59.536;13.468;2022-11-23T05:05:42;0.80;99.90
29341;DHT22;16337;59.536;13.468;2022-11-23T05:08:08;0.70;99.90
29341;DHT22;16337;59.536;13.468;2022-11-23T05:10:35;0.70;99.90
29341;DHT22;16337;59.536;13.468;2022-11-23T05:13:01;0.70;99.90
29341;DHT22;16337;59.536;13.468;2022-11-23T05:15:27;0.70;99.90
29341;DHT22;16337;59.536;13.468;2022-11-23T05:17:53;0.70;99.90
29341;DHT22;16337;59.536;13.468;2022-11-23T05:20:18;0.70;99.90
29341;DHT22;16337;59.536;13.468;2022-11-23T05:22:45;0.70;99.90
29341;DHT22;16337;59.536;13.468;2022-11-23T05:25:10;0.70;99.90
29341;DHT22;16337;59.536;13.468;2022-11-23T05:27:36;0.60;99.90
29341;DHT22;16337;59.536;13.468;2022-11-23T05:30:02;0.60;99.90
29341;DHT22;16337;59.536;13.468;2022-11-23T05:32:29;0.60;99.90
29341;DHT22;16337;59.536;13.468;2022-11-23T05:34:54;0.60;99.90
29341;DHT22;16337;59.536;13.468;2022-11-23T05:37:20;0.70;99.90
29341;DHT22;16337;59.536;13.468;2022-11-23T05:39:46;0.70;99.90
29341;DHT22;16337;59.536;13.468;2022-11-23T05:42:11;0.60;99.90
29341;DHT22;16337;59.536;13.468;2022-11-23T05:44:37;0.70;99.90
29341;DHT22;16337;59.536;13.468;2022-11-23T05:47:03;0.70;99.90
29341;DHT22;16337;59.536;13.468;2022-11-23T05:49:28;0.70;99.90
29341;DHT22;16337;59.536;13.468;2022-11-23T05:51:54;0.70;99.90
29341;DHT22;16337;59.536;13.468;2022-11-23T05:54:20;0.60;99.90
29341;DHT22;16337;59.536;13.468;2022-11-23T05:56:45;0.60;99.90
29341;DHT22;16337;59.536;13.468;2022-11-23T05:59:11;0.60;99.90
29341;DHT22;16337;59.536;13.468;2022-11-23T06:01:37;0.60;99.90
29341;DHT22;16337;59.536;13.468;2022-11-23T06:04:03;0.60;99.90
29341;DHT22;16337;59.536;13.468;2022-11-23T06:06:31;0.60;99.90
29341;DHT22;16337;59.536;13.468;2022-11-23T06:08:56;0.60;99.90
29341;DHT22;16337;59.536;13.468;2022-11-23T06:11:22;0.60;99.90
29341;DHT22;16337;59.536;13.468;2022-11-23T06:13:48;0.50;99.90
29341;DHT22;16337;59.536;13.468;2022-11-23T06:16:14;0.60;99.90
29341;DHT22;16337;59.536;13.468;2022-11-23T06:18:39;0.50;99.90
29341;DHT22;16337;59.536;13.468;2022-11-23T06:21:05;0.50;99.90
29341;DHT22;16337;59.536;13.468;2022-11-23T06:23:31;0.50;99.90
29341;DHT22;16337;59.536;13.468;2022-11-23T06:26:00;0.50;99.90
29341;DHT22;16337;59.536;13.468;2022-11-23T06:28:26;0.50;99.90
29341;DHT22;16337;59.536;13.468;2022-11-23T06:30:54;0.50;99.90
29341;DHT22;16337;59.536;13.468;2022-11-23T06:33:19;0.50;99.90
29341;DHT22;16337;59.536;13.468;2022-11-23T06:35:55;0.50;99.90
29341;DHT22;16337;59.536;13.468;2022-11-23T06:38:20;0.50;99.90
29341;DHT22;16337;59.536;13.468;2022-11-23T06:40:46;0.60;99.90
29341;DHT22;16337;59.536;13.468;2022-11-23T06:43:12;0.60;99.90
29341;DHT22;16337;59.536;13.468;2022-11-23T06:45:37;0.60;99.90
29341;DHT22;16337;59.536;13.468;2022-11-23T06:48:03;0.60;99.90
29341;DHT22;16337;59.536;13.468;2022-11-23T06:50:29;0.60;99.90
29341;DHT22;16337;59.536;13.468;2022-11-23T06:52:55;0.60;99.90
29341;DHT22;16337;59.536;13.468;2022-11-23T06:55:22;0.60;99.90
29341;DHT22;16337;59.536;13.468;2022-11-23T06:57:48;0.60;99.90
29341;DHT22;16337;59.536;13.468;2022-11-23T07:00:14;0.60;99.90
29341;DHT22;16337;59.536;13.468;2022-11-23T07:02:40;0.60;99.90
29341;DHT22;16337;59.536;13.468;2022-11-23T07:05:05;0.70;99.90
29341;DHT22;16337;59.536;13.468;2022-11-23T07:07:32;0.60;99.90
29341;DHT22;16337;59.536;13.468;2022-11-23T07:09:57;0.60;99.90
29341;DHT22;16337;59.536;13.468;2022-11-23T07:12:23;0.60;99.90
29341;DHT22;16337;59.536;13.468;2022-11-23T07:14:49;0.70;99.90
29341;DHT22;16337;59.536;13.468;2022-11-23T07:17:14;0.60;99.90
29341;DHT22;16337;59.536;13.468;2022-11-23T07:19:40;0.60;99.90
29341;DHT22;16337;59.536;13.468;2022-11-23T07:22:06;0.60;99.90
29341;DHT22;16337;59.536;13.468;2022-11-23T07:24:31;0.60;99.90
29341;DHT22;16337;59.536;13.468;2022-11-23T07:26:57;0.60;99.90
29341;DHT22;16337;59.536;13.468;2022-11-23T07:29:23;0.60;99.90
29341;DHT22;16337;59.536;13.468;2022-11-23T07:31:49;0.60;99.90
29341;DHT22;16337;59.536;13.468;2022-11-23T07:34:15;0.70;99.90
29341;DHT22;16337;59.536;13.468;2022-11-23T07:36:40;0.70;99.90
29341;DHT22;16337;59.536;13.468;2022-11-23T07:39:06;0.60;99.90
29341;DHT22;16337;59.536;13.468;2022-11-23T07:41:32;0.60;99.90
29341;DHT22;16337;59.536;13.468;2022-11-23T07:43:58;0.60;99.90
29341;DHT22;16337;59.536;13.468;2022-11-23T07:46:24;0.70;99.90
29341;DHT22;16337;59.536;13.468;2022-11-23T07:48:50;0.60;99.90
29341;DHT22;16337;59.536;13.468;2022-11-23T07:51:16;0.60;99.90
29341;DHT22;16337;59.536;13.468;2022-11-23T07:53:43;0.60;99.90
29341;DHT22;16337;59.536;13.468;2022-11-23T07:56:09;0.60;99.90
29341;DHT22;16337;59.536;13.468;2022-11-23T07:58:35;0.60;99.90
29341;DHT22;16337;59.536;13.468;2022-11-23T08:01:00;0.60;99.90
29341;DHT22;16337;59.536;13.468;2022-11-23T08:03:26;0.60;99.90
29341;DHT22;16337;59.536;13.468;2022-11-23T08:05:52;0.60;99.90
29341;DHT22;16337;59.536;13.468;2022-11-23T08:08:17;0.60;99.90
29341;DHT22;16337;59.536;13.468;2022-11-23T08:10:43;0.50;99.90
29341;DHT22;16337;59.536;13.468;2022-11-23T08:13:08;0.60;99.90
29341;DHT22;16337;59.536;13.468;2022-11-23T08:15:35;0.70;99.90
29341;DHT22;16337;59.536;13.468;2022-11-23T08:18:02;0.60;99.90
29341;DHT22;16337;59.536;13.468;2022-11-23T08:20:29;0.60;99.90
29341;DHT22;16337;59.536;13.468;2022-11-23T08:22:55;0.60;99.90
29341;DHT22;16337;59.536;13.468;2022-11-23T08:25:26;0.60;99.90
29341;DHT22;16337;59.536;13.468;2022-11-23T08:27:57;0.60;99.90
29341;DHT22;16337;59.536;13.468;2022-11-23T08:30:23;0.60;99.90
29341;DHT22;16337;59.536;13.468;2022-11-23T08:32:49;0.60;99.90
29341;DHT22;16337;59.536;13.468;2022-11-23T08:35:15;0.70;99.90
29341;DHT22;16337;59.536;13.468;2022-11-23T08:37:40;0.60;99.90
29341;DHT22;16337;59.536;13.468;2022-11-23T08:40:07;0.70;99.90
29341;DHT22;16337;59.536;13.468;2022-11-23T08:42:32;0.70;99.90
29341;DHT22;16337;59.536;13.468;2022-11-23T08:44:58;0.60;99.90
29341;DHT22;16337;59.536;13.468;2022-11-23T08:47:24;0.70;99.90
29341;DHT22;16337;59.536;13.468;2022-11-23T08:49:51;0.70;99.90
29341;DHT22;16337;59.536;13.468;2022-11-23T08:52:16;0.70;99.90
29341;DHT22;16337;59.536;13.468;2022-11-23T08:54:42;0.70;99.90
29341;DHT22;16337;59.536;13.468;2022-11-23T08:57:08;0.70;99.90
29341;DHT22;16337;59.536;13.468;2022-11-23T08:59:33;0.70;99.90
29341;DHT22;16337;59.536;13.468;2022-11-23T09:01:59;0.70;99.90
29341;DHT22;16337;59.536;13.468;2022-11-23T09:04:25;0.70;99.90
29341;DHT22;16337;59.536;13.468;2022-11-23T09:06:52;0.70;99.90
29341;DHT22;16337;59.536;13.468;2022-11-23T09:09:17;0.70;99.90
29341;DHT22;16337;59.536;13.468;2022-11-23T09:11:43;0.70;99.90
29341;DHT22;16337;59.536;13.468;2022-11-23T09:14:09;0.70;99.90
29341;DHT22;16337;59.536;13.468;2022-11-23T09:16:35;0.80;99.90
29341;DHT22;16337;59.536;13.468;2022-11-23T09:19:01;0.80;99.90
29341;DHT22;16337;59.536;13.468;2022-11-23T09:21:26;0.90;99.90
29341;DHT22;16337;59.536;13.468;2022-11-23T09:23:57;0.90;99.90
29341;DHT22;16337;59.536;13.468;2022-11-23T09:26:23;0.80;99.90
29341;DHT22;16337;59.536;13.468;2022-11-23T09:28:49;0.90;99.90
29341;DHT22;16337;59.536;13.468;2022-11-23T09:31:15;0.90;99.90
29341;DHT22;16337;59.536;13.468;2022-11-23T09:33:41;0.80;99.90
29341;DHT22;16337;59.536;13.468;2022-11-23T09:36:07;0.80;99.90
29341;DHT22;16337;59.536;13.468;2022-11-23T09:38:33;0.80;99.90
29341;DHT22;16337;59.536;13.468;2022-11-23T09:49:14;0.90;99.90
29341;DHT22;16337;59.536;13.468;2022-11-23T09:51:42;0.90;99.90
29341;DHT22;16337;59.536;13.468;2022-11-23T09:54:32;1.00;99.90
29341;DHT22;16337;59.536;13.468;2022-11-23T09:57:02;0.90;99.90
29341;DHT22;16337;59.536;13.468;2022-11-23T10:01:55;1.00;99.90
29341;DHT22;16337;59.536;13.468;2022-11-23T10:04:22;1.00;99.90
29341;DHT22;16337;59.536;13.468;2022-11-23T10:07:10;0.90;99.90
29341;DHT22;16337;59.536;13.468;2022-11-23T10:10:20;0.90;99.90
29341;DHT22;16337;59.536;13.468;2022-11-23T10:18:36;0.90;99.90
29341;DHT22;16337;59.536;13.468;2022-11-23T10:21:17;0.80;99.90
29341;DHT22;16337;59.536;13.468;2022-11-23T10:23:53;0.90;99.90
29341;DHT22;16337;59.536;13.468;2022-11-23T10:26:26;0.90;99.90
29341;DHT22;16337;59.536;13.468;2022-11-23T10:28:53;0.90;99.90
29341;DHT22;16337;59.536;13.468;2022-11-23T10:31:22;1.00;99.90
29341;DHT22;16337;59.536;13.468;2022-11-23T10:33:52;1.00;99.90
29341;DHT22;16337;59.536;13.468;2022-11-23T10:36:18;0.90;99.90
29341;DHT22;16337;59.536;13.468;2022-11-23T10:38:48;1.00;99.90
29341;DHT22;16337;59.536;13.468;2022-11-23T10:41:14;1.00;99.90
29341;DHT22;16337;59.536;13.468;2022-11-23T10:44:04;1.00;99.90
29341;DHT22;16337;59.536;13.468;2022-11-23T10:46:40;1.00;99.90
29341;DHT22;16337;59.536;13.468;2022-11-23T10:49:21;1.10;99.90
29341;DHT22;16337;59.536;13.468;2022-11-23T10:56:55;1.00;99.90
29341;DHT22;16337;59.536;13.468;2022-11-23T11:04:36;1.10;99.90
29341;DHT22;16337;59.536;13.468;2022-11-23T11:07:23;1.10;99.90
29341;DHT22;16337;59.536;13.468;2022-11-23T11:09:53;1.10;99.90
29341;DHT22;16337;59.536;13.468;2022-11-23T11:12:19;1.20;99.90
29341;DHT22;16337;59.536;13.468;2022-11-23T11:17:34;1.20;99.90
29341;DHT22;16337;59.536;13.468;2022-11-23T11:23:17;1.00;99.90
29341;DHT22;16337;59.536;13.468;2022-11-23T11:25:46;1.00;99.90
29341;DHT22;16337;59.536;13.468;2022-11-23T11:34:28;1.00;99.90
29341;DHT22;16337;59.536;13.468;2022-11-23T11:37:04;1.00;99.90
29341;DHT22;16337;59.536;13.468;2022-11-23T11:39:37;1.00;99.90
29341;DHT22;16337;59.536;13.468;2022-11-23T11:42:10;1.10;99.90
29341;DHT22;16337;59.536;13.468;2022-11-23T11:44:39;1.10;99.90
29341;DHT22;16337;59.536;13.468;2022-11-23T11:49:49;1.10;99.90
29341;DHT22;16337;59.536;13.468;2022-11-23T11:52:20;1.10;99.90
29341;DHT22;16337;59.536;13.468;2022-11-23T11:55:15;1.10;99.90
29341;DHT22;16337;59.536;13.468;2022-11-23T11:57:49;1.10;99.90
29341;DHT22;16337;59.536;13.468;2022-11-23T12:00:18;1.10;99.90
29341;DHT22;16337;59.536;13.468;2022-11-23T12:03:17;1.00;99.90
29341;DHT22;16337;59.536;13.468;2022-11-23T12:05:51;1.00;99.90
29341;DHT22;16337;59.536;13.468;2022-11-23T12:08:32;1.00;99.90
29341;DHT22;16337;59.536;13.468;2022-11-23T12:10:59;1.10;99.90
29341;DHT22;16337;59.536;13.468;2022-11-23T12:13:36;1.00;99.90
29341;DHT22;16337;59.536;13.468;2022-11-23T12:24:19;1.10;99.90
29341;DHT22;16337;59.536;13.468;2022-11-23T12:29:20;1.10;99.90
29341;DHT22;16337;59.536;13.468;2022-11-23T12:32:12;1.10;99.90
29341;DHT22;16337;59.536;13.468;2022-11-23T12:37:24;1.10;99.90
29341;DHT22;16337;59.536;13.468;2022-11-23T12:42:48;1.10;99.90
29341;DHT22;16337;59.536;13.468;2022-11-23T12:48:20;1.10;99.90
29341;DHT22;16337;59.536;13.468;2022-11-23T12:58:50;1.00;99.90
29341;DHT22;16337;59.536;13.468;2022-11-23T13:01:26;1.10;99.90
29341;DHT22;16337;59.536;13.468;2022-11-23T13:20:14;1.10;99.90
29341;DHT22;16337;59.536;13.468;2022-11-23T13:22:44;1.10;99.90
29341;DHT22;16337;59.536;13.468;2022-11-23T13:25:26;1.00;99.90
29341;DHT22;16337;59.536;13.468;2022-11-23T13:27:56;1.10;99.90
29341;DHT22;16337;59.536;13.468;2022-11-23T13:30:23;1.10;99.90
29341;DHT22;16337;59.536;13.468;2022-11-23T13:40:32;1.00;99.90
29341;DHT22;16337;59.536;13.468;2022-11-23T13:43:27;1.00;99.90
29341;DHT22;16337;59.536;13.468;2022-11-23T13:46:22;1.00;99.90
29341;DHT22;16337;59.536;13.468;2022-11-23T13:48:52;0.90;99.90
29341;DHT22;16337;59.536;13.468;2022-11-23T13:51:32;0.90;99.90
29341;DHT22;16337;59.536;13.468;2022-11-23T13:54:19;0.90;99.90
29341;DHT22;16337;59.536;13.468;2022-11-23T13:56:45;1.00;99.90
29341;DHT22;16337;59.536;13.468;2022-11-23T13:59:25;0.90;99.90
29341;DHT22;16337;59.536;13.468;2022-11-23T14:10:05;0.90;99.90
29341;DHT22;16337;59.536;13.468;2022-11-23T14:15:20;1.00;99.90
29341;DHT22;16337;59.536;13.468;2022-11-23T14:20:44;1.00;99.90
29341;DHT22;16337;59.536;13.468;2022-11-23T14:37:02;0.90;99.90
29341;DHT22;16337;59.536;13.468;2022-11-23T14:42:27;0.90;99.90
29341;DHT22;16337;59.536;13.468;2022-11-23T14:44:56;0.90;99.90
29341;DHT22;16337;59.536;13.468;2022-11-23T14:47:27;0.90;99.90
29341;DHT22;16337;59.536;13.468;2022-11-23T14:49:54;0.90;99.90
29341;DHT22;16337;59.536;13.468;2022-11-23T14:52:26;0.90;99.90
29341;DHT22;16337;59.536;13.468;2022-11-23T14:54:55;1.00;99.90
29341;DHT22;16337;59.536;13.468;2022-11-23T14:57:23;0.90;99.90
29341;DHT22;16337;59.536;13.468;2022-11-23T14:59:55;0.90;99.90
29341;DHT22;16337;59.536;13.468;2022-11-23T15:02:32;0.90;99.90
29341;DHT22;16337;59.536;13.468;2022-11-23T15:05:06;0.90;99.90
29341;DHT22;16337;59.536;13.468;2022-11-23T15:10:39;0.90;99.90
29341;DHT22;16337;59.536;13.468;2022-11-23T15:13:22;0.90;99.90
29341;DHT22;16337;59.536;13.468;2022-11-23T15:15:50;0.90;99.90
29341;DHT22;16337;59.536;13.468;2022-11-23T15:18:31;0.90;99.90
29341;DHT22;16337;59.536;13.468;2022-11-23T15:23:41;0.90;99.90
29341;DHT22;16337;59.536;13.468;2022-11-23T15:26:19;0.90;99.90
29341;DHT22;16337;59.536;13.468;2022-11-23T15:28:46;0.80;99.90
29341;DHT22;16337;59.536;13.468;2022-11-23T15:31:32;0.90;99.90
29341;DHT22;16337;59.536;13.468;2022-11-23T15:34:21;0.90;99.90
29341;DHT22;16337;59.536;13.468;2022-11-23T15:36:47;0.90;99.90
29341;DHT22;16337;59.536;13.468;2022-11-23T15:39:18;0.90;99.90
29341;DHT22;16337;59.536;13.468;2022-11-23T15:41:45;0.90;99.90
29341;DHT22;16337;59.536;13.468;2022-11-23T15:44:19;0.90;99.90
29341;DHT22;16337;59.536;13.468;2022-11-23T15:46:47;0.90;99.90
29341;DHT22;16337;59.536;13.468;2022-11-23T15:49:14;0.90;99.90
29341;DHT22;16337;59.536;13.468;2022-11-23T15:51:42;0.90;99.90
29341;DHT22;16337;59.536;13.468;2022-11-23T15:54:20;0.90;99.90
29341;DHT22;16337;59.536;13.468;2022-11-23T15:56:47;0.90;99.90
29341;DHT22;16337;59.536;13.468;2022-11-23T15:59:39;0.90;99.90
29341;DHT22;16337;59.536;13.468;2022-11-23T16:02:20;0.90;99.90
29341;DHT22;16337;59.536;13.468;2022-11-23T16:04:45;0.80;99.90
29341;DHT22;16337;59.536;13.468;2022-11-23T16:07:24;0.90;99.90
29341;DHT22;16337;59.536;13.468;2022-11-23T16:12:33;0.90;99.90
29341;DHT22;16337;59.536;13.468;2022-11-23T16:20:53;0.90;99.90
29341;DHT22;16337;59.536;13.468;2022-11-23T16:23:24;0.90;99.90
29341;DHT22;16337;59.536;13.468;2022-11-23T16:26:04;0.90;99.90
29341;DHT22;16337;59.536;13.468;2022-11-23T16:28:31;0.90;99.90
29341;DHT22;16337;59.536;13.468;2022-11-23T16:30:57;0.90;99.90
29341;DHT22;16337;59.536;13.468;2022-11-23T16:33:23;0.90;99.90
29341;DHT22;16337;59.536;13.468;2022-11-23T16:35:49;0.80;99.90
29341;DHT22;16337;59.536;13.468;2022-11-23T16:38:15;0.80;99.90
29341;DHT22;16337;59.536;13.468;2022-11-23T16:40:43;0.80;99.90
29341;DHT22;16337;59.536;13.468;2022-11-23T16:43:11;0.80;99.90
29341;DHT22;16337;59.536;13.468;2022-11-23T16:45:43;0.80;99.90
29341;DHT22;16337;59.536;13.468;2022-11-23T16:50:54;0.90;99.90
29341;DHT22;16337;59.536;13.468;2022-11-23T16:53:21;0.90;99.90
29341;DHT22;16337;59.536;13.468;2022-11-23T16:55:50;0.80;99.90
29341;DHT22;16337;59.536;13.468;2022-11-23T16:58:16;0.80;99.90
29341;DHT22;16337;59.536;13.468;2022-11-23T17:00:42;0.90;99.90
29341;DHT22;16337;59.536;13.468;2022-11-23T17:03:15;0.90;99.90
29341;DHT22;16337;59.536;13.468;2022-11-23T17:05:41;0.90;99.90
29341;DHT22;16337;59.536;13.468;2022-11-23T17:08:07;0.90;99.90
29341;DHT22;16337;59.536;13.468;2022-11-23T17:10:35;0.90;99.90
29341;DHT22;16337;59.536;13.468;2022-11-23T17:13:01;0.80;99.90
29341;DHT22;16337;59.536;13.468;2022-11-23T17:15:28;0.90;99.90
29341;DHT22;16337;59.536;13.468;2022-11-23T17:17:54;0.80;99.90
29341;DHT22;16337;59.536;13.468;2022-11-23T17:20:19;0.80;99.90
29341;DHT22;16337;59.536;13.468;2022-11-23T17:22:45;0.90;99.90
29341;DHT22;16337;59.536;13.468;2022-11-23T17:25:15;0.90;99.90
29341;DHT22;16337;59.536;13.468;2022-11-23T17:27:41;0.80;99.90
29341;DHT22;16337;59.536;13.468;2022-11-23T17:30:13;0.80;99.90
29341;DHT22;16337;59.536;13.468;2022-11-23T17:32:39;0.90;99.90
29341;DHT22;16337;59.536;13.468;2022-11-23T17:35:05;0.90;99.90
29341;DHT22;16337;59.536;13.468;2022-11-23T17:37:31;0.90;99.90
29341;DHT22;16337;59.536;13.468;2022-11-23T17:39:57;0.80;99.90
29341;DHT22;16337;59.536;13.468;2022-11-23T17:42:22;0.90;99.90
29341;DHT22;16337;59.536;13.468;2022-11-23T17:44:48;0.80;99.90
29341;DHT22;16337;59.536;13.468;2022-11-23T17:47:25;0.90;99.90
29341;DHT22;16337;59.536;13.468;2022-11-23T17:49:55;0.90;99.90
29341;DHT22;16337;59.536;13.468;2022-11-23T17:52:21;0.90;99.90
29341;DHT22;16337;59.536;13.468;2022-11-23T17:54:47;0.90;99.90
29341;DHT22;16337;59.536;13.468;2022-11-23T17:57:14;0.90;99.90
29341;DHT22;16337;59.536;13.468;2022-11-23T17:59:40;0.90;99.90
29341;DHT22;16337;59.536;13.468;2022-11-23T18:02:07;0.80;99.90